createdAt,value
2023-04-15T00:00:13.797Z,8.03
2023-04-15T00:01:19.260Z,8.03
2023-04-15T00:02:21.243Z,8.01
2023-04-15T00:03:23.758Z,8.01
2023-04-15T00:04:25.837Z,8.01
2023-04-15T00:05:27.527Z,7.97
2023-04-15T00:06:29.018Z,7.96
2023-04-15T00:07:30.469Z,8.00
2023-04-15T00:08:32.120Z,8.00
2023-04-15T00:09:33.821Z,7.96
2023-04-15T00:10:35.280Z,7.96
2023-04-15T00:11:36.725Z,7.94
2023-04-15T00:12:38.199Z,7.96
2023-04-15T00:13:40.065Z,7.92
2023-04-15T00:14:41.639Z,7.91
2023-04-15T00:15:43.402Z,7.95
2023-04-15T00:16:45.046Z,7.93
2023-04-15T00:17:47.086Z,7.91
2023-04-15T00:18:48.937Z,7.93
2023-04-15T00:19:50.386Z,7.96
2023-04-15T00:20:52.578Z,7.96
2023-04-15T00:21:54.107Z,7.95
2023-04-15T00:22:55.601Z,8.00
2023-04-15T00:23:57.711Z,7.99
2023-04-15T00:24:59.258Z,8.00
2023-04-15T00:26:00.741Z,8.01
2023-04-15T00:27:02.245Z,8.00
2023-04-15T00:28:04.116Z,8.03
2023-04-15T00:29:06.413Z,7.99
2023-04-15T00:30:08.304Z,7.98
2023-04-15T00:31:09.991Z,7.99
2023-04-15T00:32:11.488Z,7.99
2023-04-15T00:33:14.099Z,7.96
2023-04-15T00:34:15.725Z,7.96
2023-04-15T00:35:17.440Z,7.96
2023-04-15T00:36:19.477Z,8.01
2023-04-15T00:37:21.243Z,8.00
2023-04-15T00:38:22.789Z,8.03
2023-04-15T00:39:24.859Z,8.01
2023-04-15T00:40:26.482Z,8.01
2023-04-15T00:41:28.072Z,7.97
2023-04-15T00:42:29.813Z,7.96
2023-04-15T00:43:31.365Z,7.96
2023-04-15T00:44:33.544Z,7.88
2023-04-15T00:45:35.107Z,7.79
2023-04-15T00:46:38.475Z,7.78
2023-04-15T00:47:42.411Z,7.81
2023-04-15T00:48:44.233Z,7.81
2023-04-15T00:49:45.714Z,7.77
2023-04-15T00:50:47.266Z,7.74
2023-04-15T00:51:49.308Z,7.74
2023-04-15T00:52:50.767Z,7.76
2023-04-15T00:53:52.378Z,7.81
2023-04-15T00:54:53.865Z,7.79
2023-04-15T00:55:56.136Z,7.79
2023-04-15T00:56:58.029Z,7.80
2023-04-15T00:57:59.613Z,7.81
2023-04-15T00:59:02.325Z,7.83
2023-04-15T01:00:08.020Z,7.78
2023-04-15T01:01:10.217Z,7.78
2023-04-15T01:02:12.086Z,7.81
2023-04-15T01:03:14.395Z,7.83
2023-04-15T01:04:16.460Z,7.86
2023-04-15T01:05:18.643Z,7.88
2023-04-15T01:06:20.116Z,7.87
2023-04-15T01:07:21.579Z,7.89
2023-04-15T01:08:23.071Z,7.92
2023-04-15T01:09:24.752Z,7.92
2023-04-15T01:10:26.344Z,7.89
2023-04-15T01:11:28.180Z,7.86
2023-04-15T01:12:32.159Z,7.86
2023-04-15T01:13:34.508Z,7.84
2023-04-15T01:14:36.206Z,7.83
2023-04-15T01:15:37.796Z,7.86
2023-04-15T01:16:39.909Z,7.91
2023-04-15T01:17:42.055Z,7.93
2023-04-15T01:18:43.950Z,7.95
2023-04-15T01:19:45.783Z,7.98
2023-04-15T01:20:47.297Z,7.96
2023-04-15T01:21:48.855Z,7.95
2023-04-15T01:22:51.367Z,7.93
2023-04-15T01:23:55.408Z,7.94
2023-04-15T01:25:20.195Z,7.91
2023-04-15T01:26:22.255Z,7.89
2023-04-15T01:27:24.303Z,7.87
2023-04-15T01:28:26.158Z,7.89
2023-04-15T01:29:28.003Z,7.88
2023-04-15T01:30:30.006Z,7.90
2023-04-15T01:31:31.971Z,7.92
2023-04-15T01:32:33.606Z,7.91
2023-04-15T01:33:35.178Z,7.90
2023-04-15T01:34:37.052Z,7.93
2023-04-15T01:35:38.931Z,7.94
2023-04-15T01:36:40.444Z,7.95
2023-04-15T01:37:42.205Z,7.97
2023-04-15T01:38:43.730Z,7.94
2023-04-15T01:39:45.483Z,7.95
2023-04-15T01:40:46.932Z,7.98
2023-04-15T01:41:48.696Z,8.00
2023-04-15T01:42:50.178Z,7.99
2023-04-15T01:43:52.590Z,8.00
2023-04-15T01:44:54.135Z,7.95
2023-04-15T01:45:56.590Z,7.97
2023-04-15T01:46:58.700Z,7.99
2023-04-15T01:48:00.310Z,7.92
2023-04-15T01:49:02.373Z,7.95
2023-04-15T01:50:04.355Z,7.94
2023-04-15T01:51:05.922Z,7.95
2023-04-15T01:52:07.957Z,7.99
2023-04-15T01:53:09.717Z,8.01
2023-04-15T01:54:11.240Z,8.02
2023-04-15T01:55:13.370Z,8.05
2023-04-15T01:56:16.517Z,8.04
2023-04-15T01:57:18.331Z,8.03
2023-04-15T01:58:20.035Z,8.02
2023-04-15T01:59:21.670Z,8.04
2023-04-15T02:00:23.127Z,8.05
2023-04-15T02:01:25.030Z,8.02
2023-04-15T02:02:26.757Z,8.04
2023-04-15T02:03:29.775Z,8.05
2023-04-15T02:04:31.724Z,8.06
2023-04-15T02:05:33.798Z,8.06
2023-04-15T02:06:36.408Z,8.05
2023-04-15T02:07:37.984Z,8.06
2023-04-15T02:08:39.442Z,8.05
2023-04-15T02:09:40.940Z,8.05
2023-04-15T02:10:42.788Z,8.06
2023-04-15T02:11:44.877Z,8.04
2023-04-15T02:12:46.571Z,8.02
2023-04-15T02:13:47.972Z,8.01
2023-04-15T02:14:49.418Z,8.01
2023-04-15T02:15:52.519Z,8.05
2023-04-15T02:16:53.991Z,8.05
2023-04-15T02:17:55.679Z,8.00
2023-04-15T02:18:57.383Z,8.03
2023-04-15T02:19:59.339Z,7.97
2023-04-15T02:21:01.163Z,7.95
2023-04-15T02:22:02.746Z,7.90
2023-04-15T02:23:07.385Z,7.89
2023-04-15T02:24:09.053Z,7.90
2023-04-15T02:25:11.705Z,7.92
2023-04-15T02:26:13.248Z,7.85
2023-04-15T02:27:18.397Z,7.89
2023-04-15T02:28:19.872Z,7.92
2023-04-15T02:29:21.466Z,7.95
2023-04-15T02:30:23.979Z,7.98
2023-04-15T02:31:26.078Z,7.97
2023-04-15T02:32:28.984Z,7.98
2023-04-15T02:33:32.352Z,8.00
2023-04-15T02:34:33.990Z,8.01
2023-04-15T02:35:36.517Z,7.98
2023-04-15T02:36:39.255Z,7.99
2023-04-15T02:37:43.527Z,7.98
2023-04-15T02:38:45.388Z,7.89
2023-04-15T02:39:47.124Z,7.92
2023-04-15T02:40:50.645Z,7.94
2023-04-15T02:41:52.578Z,7.93
2023-04-15T02:42:54.052Z,7.93
2023-04-15T02:43:55.828Z,7.90
2023-04-15T02:44:58.374Z,7.97
2023-04-15T02:45:59.928Z,7.94
2023-04-15T02:47:01.525Z,7.98
2023-04-15T02:48:06.331Z,7.98
2023-04-15T02:49:08.645Z,7.96
2023-04-15T02:50:12.781Z,7.94
2023-04-15T02:51:16.145Z,7.89
2023-04-15T02:52:17.647Z,7.93
2023-04-15T02:53:19.997Z,7.89
2023-04-15T02:54:26.137Z,7.90
2023-04-15T02:55:27.875Z,7.86
2023-04-15T02:56:30.260Z,7.86
2023-04-15T02:57:31.827Z,7.87
2023-04-15T02:58:34.848Z,7.90
2023-04-15T02:59:36.378Z,7.88
2023-04-15T03:00:37.955Z,7.90
2023-04-15T03:01:39.528Z,7.94
2023-04-15T03:02:42.351Z,7.96
2023-04-15T03:03:44.063Z,7.98
2023-04-15T03:04:46.106Z,7.93
2023-04-15T03:05:47.994Z,7.97
2023-04-15T03:06:49.579Z,7.95
2023-04-15T03:07:54.215Z,7.98
2023-04-15T03:08:57.058Z,7.98
2023-04-15T03:09:58.502Z,7.98
2023-04-15T03:11:01.257Z,7.98
2023-04-15T03:12:03.059Z,8.00
2023-04-15T03:13:04.547Z,8.00
2023-04-15T03:14:06.209Z,7.97
2023-04-15T03:15:09.001Z,7.98
2023-04-15T03:16:10.967Z,7.99
2023-04-15T03:17:12.572Z,8.02
2023-04-15T03:18:14.211Z,8.04
2023-04-15T03:19:15.673Z,8.06
2023-04-15T03:20:17.356Z,8.06
2023-04-15T03:21:20.398Z,8.04
2023-04-15T03:22:21.760Z,8.02
2023-04-15T03:23:23.234Z,7.96
2023-04-15T03:24:24.943Z,7.96
2023-04-15T03:25:26.417Z,8.00
2023-04-15T03:26:31.676Z,8.00
2023-04-15T03:27:33.218Z,8.04
2023-04-15T03:28:34.737Z,8.07
2023-04-15T03:29:36.319Z,8.04
2023-04-15T03:30:37.839Z,8.01
2023-04-15T03:31:39.384Z,8.02
2023-04-15T03:32:40.887Z,8.02
2023-04-15T03:33:42.456Z,8.02
2023-04-15T03:34:44.247Z,7.97
2023-04-15T03:35:46.277Z,7.99
2023-04-15T03:36:47.846Z,8.00
2023-04-15T03:37:49.366Z,7.96
2023-04-15T03:38:51.067Z,7.99
2023-04-15T03:39:52.880Z,7.98
2023-04-15T03:40:54.398Z,8.03
2023-04-15T03:41:56.471Z,8.01
2023-04-15T03:42:58.022Z,8.01
2023-04-15T03:43:59.754Z,7.98
2023-04-15T03:45:01.934Z,7.95
2023-04-15T03:46:03.760Z,7.95
2023-04-15T03:47:05.350Z,7.94
2023-04-15T03:48:17.072Z,7.96
2023-04-15T03:49:19.965Z,7.93
2023-04-15T03:50:22.189Z,7.98
2023-04-15T03:51:23.670Z,7.96
2023-04-15T03:52:25.730Z,7.97
2023-04-15T03:53:27.180Z,7.96
2023-04-15T03:54:28.633Z,7.97
2023-04-15T03:55:30.867Z,7.98
2023-04-15T03:56:32.346Z,8.00
2023-04-15T03:57:38.088Z,7.96
2023-04-15T03:58:39.593Z,7.99
2023-04-15T03:59:41.119Z,7.97
2023-04-15T04:00:42.641Z,7.98
2023-04-15T04:01:44.159Z,7.95
2023-04-15T04:02:46.230Z,7.92
2023-04-15T04:03:48.037Z,7.93
2023-04-15T04:04:49.720Z,7.94
2023-04-15T04:05:51.678Z,7.92
2023-04-15T04:06:53.127Z,7.94
2023-04-15T04:08:00.653Z,7.98
2023-04-15T04:09:02.901Z,7.99
2023-04-15T04:10:05.253Z,8.01
2023-04-15T04:11:07.123Z,8.02
2023-04-15T04:12:09.031Z,8.04
2023-04-15T04:13:10.721Z,8.03
2023-04-15T04:14:12.292Z,8.01
2023-04-15T04:15:13.894Z,8.00
2023-04-15T04:16:15.756Z,7.99
2023-04-15T04:17:17.444Z,7.98
2023-04-15T04:18:19.024Z,8.00
2023-04-15T04:19:20.870Z,7.98
2023-04-15T04:20:22.504Z,7.99
2023-04-15T04:21:24.170Z,8.02
2023-04-15T04:22:25.721Z,8.01
2023-04-15T04:23:27.350Z,7.97
2023-04-15T04:24:28.843Z,7.93
2023-04-15T04:25:30.345Z,7.94
2023-04-15T04:26:32.159Z,7.93
2023-04-15T04:27:33.632Z,7.93
2023-04-15T04:28:36.413Z,7.95
2023-04-15T04:29:37.862Z,7.99
2023-04-15T04:30:40.312Z,8.00
2023-04-15T04:31:41.933Z,8.00
2023-04-15T04:32:43.547Z,8.02
2023-04-15T04:33:45.337Z,8.02
2023-04-15T04:34:47.299Z,7.99
2023-04-15T04:35:49.191Z,8.01
2023-04-15T04:36:50.719Z,8.01
2023-04-15T04:37:52.470Z,8.01
2023-04-15T04:38:54.002Z,8.02
2023-04-15T04:39:55.583Z,8.02
2023-04-15T04:40:57.468Z,8.05
2023-04-15T04:41:58.966Z,8.07
2023-04-15T04:43:00.563Z,8.06
2023-04-15T04:44:02.506Z,8.07
2023-04-15T04:45:04.338Z,8.10
2023-04-15T04:46:06.149Z,8.08
2023-04-15T04:47:07.826Z,8.12
2023-04-15T04:48:10.569Z,8.13
2023-04-15T04:49:12.088Z,8.12
2023-04-15T04:50:13.644Z,8.13
2023-04-15T04:51:16.318Z,8.15
2023-04-15T04:52:17.824Z,8.11
2023-04-15T04:53:19.410Z,8.08
2023-04-15T04:54:21.363Z,8.09
2023-04-15T04:55:22.859Z,8.08
2023-04-15T04:56:24.721Z,8.09
2023-04-15T04:57:26.528Z,8.11
2023-04-15T04:58:28.039Z,8.14
2023-04-15T04:59:29.634Z,8.14
2023-04-15T05:00:31.587Z,8.13
2023-04-15T05:01:33.709Z,8.10
2023-04-15T05:02:36.102Z,8.10
2023-04-15T05:03:38.335Z,8.14
2023-04-15T05:04:39.938Z,8.13
2023-04-15T05:05:41.649Z,8.11
2023-04-15T05:06:43.209Z,8.07
2023-04-15T05:07:44.746Z,8.07
2023-04-15T05:08:47.150Z,8.08
2023-04-15T05:09:48.653Z,8.09
2023-04-15T05:10:50.495Z,8.09
2023-04-15T05:11:52.024Z,8.12
2023-04-15T05:12:53.599Z,8.14
2023-04-15T05:13:55.433Z,8.14
2023-04-15T05:14:57.066Z,8.11
2023-04-15T05:15:58.986Z,8.13
2023-04-15T05:17:00.539Z,8.13
2023-04-15T05:18:02.283Z,8.15
2023-04-15T05:19:04.032Z,8.16
2023-04-15T05:20:06.124Z,8.17
2023-04-15T05:21:08.098Z,8.17
2023-04-15T05:22:09.629Z,8.16
2023-04-15T05:23:11.264Z,8.18
2023-04-15T05:24:12.818Z,8.22
2023-04-15T05:25:14.375Z,8.23
2023-04-15T05:26:16.312Z,8.21
2023-04-15T05:27:19.102Z,8.23
2023-04-15T05:28:21.245Z,8.25
2023-04-15T05:29:22.759Z,8.22
2023-04-15T05:30:24.609Z,8.26
2023-04-15T05:31:26.727Z,8.28
2023-04-15T05:32:28.294Z,8.30
2023-04-15T05:33:29.805Z,8.28
2023-04-15T05:34:31.523Z,8.27
2023-04-15T05:35:33.405Z,8.30
2023-04-15T05:36:34.918Z,8.35
2023-04-15T05:37:36.435Z,8.33
2023-04-15T05:38:38.481Z,8.34
2023-04-15T05:39:40.077Z,8.39
2023-04-15T05:40:41.677Z,8.41
2023-04-15T05:41:43.191Z,8.38
2023-04-15T05:42:44.689Z,8.40
2023-04-15T05:43:46.504Z,8.44
2023-04-15T05:44:48.537Z,8.43
2023-04-15T05:45:50.161Z,8.38
2023-04-15T05:46:51.994Z,8.39
2023-04-15T05:47:54.465Z,8.40
2023-04-15T05:48:56.580Z,8.45
2023-04-15T05:49:59.255Z,8.47
2023-04-15T05:51:01.304Z,8.48
2023-04-15T05:52:03.205Z,8.45
2023-04-15T05:53:04.731Z,8.46
2023-04-15T05:54:06.876Z,8.46
2023-04-15T05:55:09.032Z,8.47
2023-04-15T05:56:10.641Z,8.52
2023-04-15T05:57:12.117Z,8.53
2023-04-15T05:58:13.578Z,8.52
2023-04-15T05:59:15.123Z,8.54
2023-04-15T06:00:17.092Z,8.51
2023-04-15T06:01:18.594Z,8.49
2023-04-15T06:02:20.455Z,8.45
2023-04-15T06:03:23.092Z,8.50
2023-04-15T06:04:24.847Z,8.55
2023-04-15T06:05:26.401Z,8.59
2023-04-15T06:06:27.869Z,8.64
2023-04-15T06:07:29.337Z,8.67
2023-04-15T06:08:30.894Z,8.68
2023-04-15T06:09:32.301Z,8.68
2023-04-15T06:10:36.980Z,8.70
2023-04-15T06:11:38.506Z,8.74
2023-04-15T06:12:40.075Z,8.75
2023-04-15T06:13:41.540Z,8.77
2023-04-15T06:14:43.362Z,8.77
2023-04-15T06:15:45.118Z,8.80
2023-04-15T06:16:47.034Z,8.80
2023-04-15T06:17:48.625Z,8.82
2023-04-15T06:18:50.081Z,8.86
2023-04-15T06:19:55.888Z,8.88
2023-04-15T06:20:57.588Z,8.89
2023-04-15T06:23:01.147Z,8.92
2023-04-15T06:24:02.801Z,8.92
2023-04-15T06:25:04.844Z,8.90
2023-04-15T06:26:06.316Z,8.89
2023-04-15T06:27:08.059Z,8.86
2023-04-15T06:28:09.485Z,8.82
2023-04-15T06:29:10.999Z,8.74
2023-04-15T06:30:13.825Z,8.63
2023-04-15T06:31:15.479Z,8.62
2023-04-15T06:32:16.955Z,8.53
2023-04-15T06:33:18.469Z,8.56
2023-04-15T06:34:20.084Z,8.66
2023-04-15T06:35:22.505Z,8.74
2023-04-15T06:36:24.001Z,8.80
2023-04-15T06:37:25.505Z,8.89
2023-04-15T06:38:27.026Z,8.95
2023-04-15T06:39:28.638Z,8.94
2023-04-15T06:40:30.259Z,8.95
2023-04-15T06:41:31.830Z,9.02
2023-04-15T06:42:34.107Z,9.05
2023-04-15T06:43:35.594Z,9.07
2023-04-15T06:44:37.282Z,9.11
2023-04-15T06:45:38.840Z,9.16
2023-04-15T06:46:40.671Z,9.21
2023-04-15T06:47:43.649Z,9.23
2023-04-15T06:48:45.306Z,9.25
2023-04-15T06:49:46.827Z,9.27
2023-04-15T06:50:50.200Z,9.30
2023-04-15T06:51:51.670Z,9.25
2023-04-15T06:52:54.811Z,9.27
2023-04-15T06:53:56.928Z,9.29
2023-04-15T06:54:59.667Z,9.26
2023-04-15T06:56:01.677Z,9.26
2023-04-15T06:57:03.410Z,9.29
2023-04-15T06:58:04.922Z,9.31
2023-04-15T06:59:06.700Z,9.31
2023-04-15T07:00:11.455Z,9.33
2023-04-15T07:01:14.375Z,9.34
2023-04-15T07:02:15.857Z,9.35
2023-04-15T07:03:17.881Z,9.36
2023-04-15T07:04:19.526Z,9.35
2023-04-15T07:05:21.320Z,9.30
2023-04-15T07:06:22.752Z,9.33
2023-04-15T07:07:24.238Z,9.37
2023-04-15T07:08:25.755Z,9.34
2023-04-15T07:09:27.355Z,9.32
2023-04-15T07:10:29.318Z,9.36
2023-04-15T07:11:31.074Z,9.36
2023-04-15T07:12:32.710Z,9.39
2023-04-15T07:13:34.388Z,9.39
2023-04-15T07:14:36.528Z,9.33
2023-04-15T07:15:38.301Z,9.32
2023-04-15T07:16:39.839Z,9.32
2023-04-15T07:17:43.336Z,9.36
2023-04-15T07:18:44.964Z,9.41
2023-04-15T07:19:46.465Z,9.41
2023-04-15T07:20:48.842Z,9.42
2023-04-15T07:21:50.474Z,9.42
2023-04-15T07:22:52.024Z,9.39
2023-04-15T07:23:53.603Z,9.40
2023-04-15T07:24:55.021Z,9.42
2023-04-15T07:25:57.765Z,9.40
2023-04-15T07:27:01.112Z,9.36
2023-04-15T07:28:03.476Z,9.37
2023-04-15T07:29:05.015Z,9.38
2023-04-15T07:30:07.499Z,9.41
2023-04-15T07:31:09.083Z,9.43
2023-04-15T07:32:10.890Z,9.46
2023-04-15T07:33:12.621Z,9.49
2023-04-15T07:34:14.115Z,9.42
2023-04-15T07:35:16.120Z,9.43
2023-04-15T07:36:17.598Z,9.46
2023-04-15T07:37:19.247Z,9.50
2023-04-15T07:38:20.702Z,9.48
2023-04-15T07:39:22.698Z,9.49
2023-04-15T07:40:24.322Z,9.52
2023-04-15T07:41:26.614Z,9.56
2023-04-15T07:42:29.309Z,9.57
2023-04-15T07:43:30.861Z,9.54
2023-04-15T07:44:32.477Z,9.49
2023-04-15T07:45:34.452Z,9.46
2023-04-15T07:46:37.304Z,9.51
2023-04-15T07:47:39.057Z,9.54
2023-04-15T07:48:40.810Z,9.52
2023-04-15T07:49:43.454Z,9.54
2023-04-15T07:50:45.034Z,9.50
2023-04-15T07:51:46.575Z,9.49
2023-04-15T07:52:49.050Z,9.56
2023-04-15T07:53:51.126Z,9.53
2023-04-15T07:54:52.718Z,9.57
2023-04-15T07:55:54.236Z,9.57
2023-04-15T07:56:56.486Z,9.54
2023-04-15T07:57:57.988Z,9.56
2023-04-15T07:59:02.348Z,9.62
2023-04-15T08:00:06.157Z,9.65
2023-04-15T08:01:07.877Z,9.74
2023-04-15T08:02:11.713Z,9.70
2023-04-15T08:03:13.549Z,9.74
2023-04-15T08:04:15.826Z,9.75
2023-04-15T08:05:17.505Z,9.72
2023-04-15T08:06:19.513Z,9.67
2023-04-15T08:07:21.464Z,9.63
2023-04-15T08:08:22.972Z,9.61
2023-04-15T08:09:24.984Z,9.54
2023-04-15T08:10:26.652Z,9.52
2023-04-15T08:11:28.201Z,9.45
2023-04-15T08:12:29.840Z,9.47
2023-04-15T08:13:31.569Z,9.51
2023-04-15T08:14:40.522Z,9.56
2023-04-15T08:15:42.203Z,9.58
2023-04-15T08:16:43.944Z,9.57
2023-04-15T08:17:48.612Z,9.51
2023-04-15T08:18:52.169Z,9.48
2023-04-15T08:19:54.057Z,9.47
2023-04-15T08:20:55.594Z,9.43
2023-04-15T08:22:00.693Z,9.39
2023-04-15T08:23:10.538Z,9.35
2023-04-15T08:25:15.692Z,9.31
2023-04-15T08:26:39.404Z,9.31
2023-04-15T08:27:52.160Z,9.36
2023-04-15T08:29:04.537Z,9.33
2023-04-15T08:30:06.934Z,9.33
2023-04-15T08:31:09.651Z,9.35
2023-04-15T08:32:11.323Z,9.32
2023-04-15T08:33:13.191Z,9.29
2023-04-15T08:34:23.260Z,9.30
2023-04-15T08:35:24.938Z,9.26
2023-04-15T08:36:27.174Z,9.24
2023-04-15T08:39:11.475Z,9.26
2023-04-15T08:40:29.179Z,9.29
2023-04-15T08:42:20.806Z,9.21
2023-04-15T08:44:10.301Z,9.18
2023-04-15T08:45:36.747Z,9.24
2023-04-15T08:46:39.694Z,9.17
2023-04-15T08:48:07.467Z,9.11
2023-04-15T08:51:36.213Z,9.00
2023-04-15T08:52:41.101Z,9.03
2023-04-15T08:54:00.726Z,9.04
2023-04-15T08:55:04.097Z,9.01
2023-04-15T08:56:10.228Z,9.02
2023-04-15T08:57:12.750Z,8.97
2023-04-15T08:58:14.608Z,8.96
2023-04-15T08:59:19.008Z,8.94
2023-04-15T09:00:38.010Z,8.96
2023-04-15T09:01:40.935Z,8.87
2023-04-15T09:09:53.130Z,8.86
2023-04-15T09:10:55.317Z,8.89
2023-04-15T09:11:58.709Z,8.94
2023-04-15T09:13:02.180Z,8.97
2023-04-15T09:14:03.767Z,9.00
2023-04-15T09:15:06.003Z,9.03
2023-04-15T09:16:08.486Z,9.04
2023-04-15T09:17:10.952Z,8.98
2023-04-15T09:18:15.179Z,8.98
2023-04-15T09:19:24.058Z,8.97
2023-04-15T09:20:25.655Z,8.93
2023-04-15T09:21:27.745Z,8.91
2023-04-15T09:22:32.558Z,8.95
2023-04-15T09:23:37.549Z,8.96
2023-04-15T09:24:41.044Z,8.93
2023-04-15T09:25:42.694Z,8.99
2023-04-15T09:26:44.148Z,8.99
2023-04-15T09:27:52.915Z,9.03
2023-04-15T09:29:04.067Z,9.10
2023-04-15T09:30:08.960Z,9.14
2023-04-15T09:44:59.440Z,9.18
2023-04-15T09:47:16.857Z,9.24
2023-04-15T09:48:42.532Z,9.30
2023-04-15T09:51:18.944Z,9.26
2023-04-15T09:52:21.698Z,9.21
2023-04-15T09:53:26.797Z,9.19
2023-04-15T09:54:41.685Z,9.21
2023-04-15T09:56:02.903Z,9.22
2023-04-15T09:57:10.834Z,9.16
2023-04-15T09:58:26.669Z,9.21
2023-04-15T09:59:28.326Z,9.19
2023-04-15T10:00:31.116Z,9.26
2023-04-15T10:01:33.461Z,9.28
2023-04-15T10:02:39.914Z,9.28
2023-04-15T10:17:16.692Z,9.04
2023-04-15T10:18:22.848Z,9.04
2023-04-15T10:20:24.022Z,9.02
2023-04-15T10:41:55.365Z,9.09
2023-04-15T10:50:56.561Z,9.49
2023-04-15T10:53:02.068Z,9.57
2023-04-15T10:59:17.961Z,9.47
2023-04-15T11:00:21.099Z,9.52
2023-04-15T11:02:02.348Z,9.55
2023-04-15T11:03:24.002Z,9.53
2023-04-15T11:05:11.404Z,9.57
2023-04-15T11:06:26.434Z,9.56
2023-04-15T11:07:35.887Z,9.57
2023-04-15T11:08:55.562Z,9.61
2023-04-15T11:11:19.712Z,9.58
2023-04-15T11:12:21.974Z,9.61
2023-04-15T11:13:27.118Z,9.63
2023-04-15T11:14:28.682Z,9.66
2023-04-15T11:15:38.880Z,9.65
2023-04-15T11:16:45.053Z,9.62
2023-04-15T11:17:47.080Z,9.62
2023-04-15T11:18:56.067Z,9.61
2023-04-15T11:19:58.486Z,9.58
2023-04-15T11:21:03.533Z,9.56
2023-04-15T11:22:35.060Z,9.56
2023-04-15T11:23:43.399Z,9.60
2023-04-15T11:24:50.723Z,9.69
2023-04-15T11:25:52.275Z,9.69
2023-04-15T11:27:01.940Z,9.72
2023-04-15T11:28:07.741Z,9.75
2023-04-15T11:29:17.843Z,9.80
2023-04-15T11:30:24.515Z,9.82
2023-04-15T11:31:28.677Z,9.82
2023-04-15T11:32:30.435Z,9.78
2023-04-15T11:33:31.974Z,9.73
2023-04-15T11:34:35.587Z,9.76
2023-04-15T11:35:37.855Z,9.79
2023-04-15T11:36:43.461Z,9.79
2023-04-15T11:37:46.881Z,9.82
2023-04-15T11:38:48.446Z,9.89
2023-04-15T11:39:50.022Z,9.94
2023-04-15T11:40:52.518Z,9.98
2023-04-15T11:41:54.075Z,9.98
2023-04-15T11:43:11.593Z,10.02
2023-04-15T11:44:19.039Z,9.97
2023-04-15T11:45:20.762Z,9.98
2023-04-15T11:46:29.589Z,9.99
2023-04-15T11:47:31.113Z,9.99
2023-04-15T11:48:34.939Z,9.95
2023-04-15T11:49:41.635Z,9.90
2023-04-15T11:50:43.191Z,9.86
2023-04-15T11:51:45.146Z,9.85
2023-04-15T11:52:57.037Z,9.86
2023-04-15T11:53:58.671Z,9.84
2023-04-15T11:55:08.249Z,9.85
2023-04-15T11:56:11.658Z,9.79
2023-04-15T11:57:13.994Z,9.83
2023-04-15T11:58:28.037Z,9.88
2023-04-15T11:59:45.215Z,9.83
2023-04-15T12:00:57.603Z,9.86
2023-04-15T12:02:12.852Z,9.92
2023-04-15T12:03:19.614Z,9.95
2023-04-15T12:04:25.388Z,9.98
2023-04-15T12:05:27.725Z,10.05
2023-04-15T12:06:37.366Z,10.11
2023-04-15T12:07:58.555Z,10.14
2023-04-15T12:09:06.264Z,10.19
2023-04-15T12:10:11.061Z,10.25
2023-04-15T12:11:12.530Z,10.29
2023-04-15T12:12:14.167Z,10.32
2023-04-15T12:13:16.382Z,10.24
2023-04-15T12:14:28.806Z,10.24
2023-04-15T12:15:32.356Z,10.22
2023-04-15T12:16:48.377Z,10.15
2023-04-15T12:17:55.219Z,10.08
2023-04-15T12:19:00.075Z,10.01
2023-04-15T12:20:01.748Z,9.97
2023-04-15T12:21:13.181Z,9.92
2023-04-15T12:22:17.088Z,9.83
2023-04-15T12:23:21.303Z,9.85
2023-04-15T12:24:23.576Z,9.86
2023-04-15T12:25:34.899Z,9.85
2023-04-15T12:26:43.361Z,9.87
2023-04-15T12:27:52.056Z,9.93
2023-04-15T12:29:02.481Z,9.93
2023-04-15T12:30:08.075Z,9.98
2023-04-15T12:31:11.151Z,10.02
2023-04-15T12:32:13.806Z,10.01
2023-04-15T12:33:15.366Z,10.05
2023-04-15T12:34:17.634Z,10.07
2023-04-15T12:35:21.566Z,10.11
2023-04-15T12:36:23.740Z,10.14
2023-04-15T12:37:26.136Z,10.15
2023-04-15T12:38:27.975Z,10.22
2023-04-15T12:39:32.819Z,10.24
2023-04-15T12:40:34.355Z,10.29
2023-04-15T12:41:35.966Z,10.31
2023-04-15T12:42:37.955Z,10.31
2023-04-15T12:43:39.511Z,10.34
2023-04-15T12:44:41.895Z,10.32
2023-04-15T12:45:43.378Z,10.35
2023-04-15T12:46:46.206Z,10.32
2023-04-15T12:47:47.757Z,10.30
2023-04-15T12:48:51.252Z,10.30
2023-04-15T12:49:52.998Z,10.30
2023-04-15T12:50:54.674Z,10.29
2023-04-15T12:52:00.073Z,10.25
2023-04-15T12:53:01.853Z,10.26
2023-04-15T12:54:04.081Z,10.22
2023-04-15T12:55:07.730Z,10.22
2023-04-15T12:56:09.514Z,10.25
2023-04-15T12:57:11.308Z,10.24
2023-04-15T12:58:20.102Z,10.29
2023-04-15T13:02:34.281Z,10.33
2023-04-15T13:03:36.926Z,10.36
2023-04-15T13:04:51.720Z,10.39
2023-04-15T13:05:54.402Z,10.44
2023-04-15T13:07:00.316Z,10.42
2023-04-15T13:08:03.260Z,10.44
2023-04-15T13:09:18.447Z,10.45
2023-04-15T13:18:46.859Z,10.60
2023-04-15T13:28:54.105Z,10.47
2023-04-15T13:38:32.229Z,10.23
2023-04-15T13:40:02.484Z,10.17
2023-04-15T13:41:25.030Z,10.18
2023-04-15T13:43:01.715Z,10.19
2023-04-15T13:51:19.576Z,10.12
2023-04-15T13:52:21.132Z,10.14
2023-04-15T13:53:33.874Z,10.14
2023-04-15T13:54:39.658Z,10.14
2023-04-15T13:55:42.715Z,10.13
2023-04-15T13:56:44.584Z,10.10
2023-04-15T13:57:46.766Z,10.04
2023-04-15T13:59:00.437Z,10.08
2023-04-15T14:00:04.653Z,9.97
2023-04-15T14:01:07.467Z,9.96
2023-04-15T14:02:09.160Z,9.99
2023-04-15T14:03:11.146Z,10.03
2023-04-15T14:04:13.956Z,10.07
2023-04-15T14:05:15.915Z,10.09
2023-04-15T14:06:17.753Z,10.09
2023-04-15T14:07:22.156Z,10.06
2023-04-15T14:08:25.451Z,10.05
2023-04-15T14:09:28.159Z,10.04
2023-04-15T14:10:29.989Z,10.07
2023-04-15T14:11:32.012Z,10.09
2023-04-15T14:12:33.945Z,10.07
2023-04-15T14:13:36.901Z,10.06
2023-04-15T14:14:38.494Z,10.02
2023-04-15T14:15:42.152Z,10.02
2023-04-15T14:16:44.073Z,9.97
2023-04-15T14:17:46.006Z,9.91
2023-04-15T14:18:50.869Z,9.93
2023-04-15T14:19:59.878Z,9.92
2023-04-15T14:21:01.612Z,9.90
2023-04-15T14:22:06.532Z,9.91
2023-04-15T14:23:08.725Z,9.90
2023-04-15T14:24:11.115Z,9.93
2023-04-15T14:25:27.006Z,9.94
2023-04-15T14:26:35.161Z,9.92
2023-04-15T14:27:36.950Z,9.90
2023-04-15T14:28:43.430Z,9.90
2023-04-15T14:29:45.069Z,9.92
2023-04-15T14:30:49.793Z,9.92
2023-04-15T14:32:04.553Z,9.84
2023-04-15T14:33:13.139Z,9.87
2023-04-15T14:34:14.759Z,9.87
2023-04-15T14:35:16.548Z,9.88
2023-04-15T14:36:20.769Z,9.95
2023-04-15T14:37:24.234Z,9.96
2023-04-15T14:38:26.046Z,9.95
2023-04-15T14:39:27.632Z,9.95
2023-04-15T14:40:29.711Z,9.97
2023-04-15T14:41:31.465Z,9.97
2023-04-15T14:42:36.256Z,9.98
2023-04-15T14:43:40.561Z,10.00
2023-04-15T14:44:44.206Z,9.93
2023-04-15T14:45:46.100Z,9.88
2023-04-15T14:46:48.054Z,9.90
2023-04-15T14:47:51.548Z,9.88
2023-04-15T14:48:56.287Z,9.86
2023-04-15T14:49:58.170Z,9.87
2023-04-15T14:50:59.928Z,9.87
2023-04-15T14:52:01.654Z,9.88
2023-04-15T14:53:06.295Z,9.86
2023-04-15T14:54:07.847Z,9.89
2023-04-15T14:55:11.004Z,9.85
2023-04-15T14:56:12.664Z,9.85
2023-04-15T14:57:14.545Z,9.85
2023-04-15T14:58:16.827Z,9.88
2023-04-15T14:59:18.346Z,9.89
2023-04-15T15:00:20.033Z,9.90
2023-04-15T15:01:21.858Z,9.91
2023-04-15T15:02:37.330Z,9.90
2023-04-15T15:03:40.941Z,9.89
2023-04-15T15:04:42.841Z,9.85
2023-04-15T15:05:46.964Z,9.85
2023-04-15T15:06:57.388Z,9.82
2023-04-15T15:08:11.018Z,9.86
2023-04-15T15:10:54.856Z,9.83
2023-04-15T15:11:57.345Z,9.82
2023-04-15T15:13:00.246Z,9.85
2023-04-15T15:14:01.762Z,9.86
2023-04-15T15:15:12.206Z,9.82
2023-04-15T15:16:21.576Z,9.82
2023-04-15T15:17:23.265Z,9.79
2023-04-15T15:18:26.508Z,9.78
2023-04-15T15:19:28.849Z,9.78
2023-04-15T15:20:32.838Z,9.82
2023-04-15T15:21:34.952Z,9.83
2023-04-15T15:22:36.390Z,9.81
2023-04-15T15:23:38.279Z,9.81
2023-04-15T15:24:39.836Z,9.80
2023-04-15T15:25:41.337Z,9.79
2023-04-15T15:26:42.901Z,9.78
2023-04-15T15:27:44.566Z,9.76
2023-04-15T15:28:46.120Z,9.73
2023-04-15T15:29:47.660Z,9.72
2023-04-15T15:30:49.130Z,9.74
2023-04-15T15:31:50.764Z,9.73
2023-04-15T15:32:52.747Z,9.74
2023-04-15T15:33:54.314Z,9.75
2023-04-15T15:34:55.774Z,9.75
2023-04-15T15:35:58.152Z,9.76
2023-04-15T15:37:00.841Z,9.69
2023-04-15T15:38:02.548Z,9.70
2023-04-15T15:39:07.084Z,9.69
2023-04-15T15:40:10.344Z,9.72
2023-04-15T15:41:12.121Z,9.71
2023-04-15T15:42:33.432Z,9.61
2023-04-15T15:43:35.148Z,9.60
2023-04-15T15:44:38.495Z,9.60
2023-04-15T15:45:40.891Z,9.57
2023-04-15T15:46:42.491Z,9.50
2023-04-15T15:47:44.102Z,9.48
2023-04-15T15:48:46.038Z,9.45
2023-04-15T15:49:48.047Z,9.45
2023-04-15T15:50:52.993Z,9.41
2023-04-15T15:52:08.963Z,9.45
2023-04-15T15:53:13.045Z,9.44
2023-04-15T15:54:26.896Z,9.37
2023-04-15T15:55:43.895Z,9.35
2023-04-15T15:56:45.750Z,9.38
2023-04-15T15:57:47.462Z,9.43
2023-04-15T15:58:52.378Z,9.45
2023-04-15T16:00:04.703Z,9.46
2023-04-15T16:01:13.384Z,9.48
2023-04-15T16:02:15.869Z,9.48